sensor_id;sensor_type;location;lat;lon;timestamp;pressure;altitude;pressure_sealevel;temperature;humidity
51849;BME280;38952;51.090;-1.832;2023-07-02T00:00:20;99914.88;;;12.80;81.15
51849;BME280;38952;51.090;-1.832;2023-07-02T00:02:46;99916.56;;;12.75;80.97
51849;BME280;38952;51.090;-1.832;2023-07-02T00:05:12;99911.97;;;12.71;81.65
51849;BME280;38952;51.090;-1.832;2023-07-02T00:07:38;99913.38;;;12.68;81.51
51849;BME280;38952;51.090;-1.832;2023-07-02T00:10:03;99911.28;;;12.60;81.44
51849;BME280;38952;51.090;-1.832;2023-07-02T00:12:29;99911.72;;;12.67;81.54
51849;BME280;38952;51.090;-1.832;2023-07-02T00:14:55;99906.91;;;12.59;81.73
51849;BME280;38952;51.090;-1.832;2023-07-02T00:17:21;99908.81;;;12.58;81.59
51849;BME280;38952;51.090;-1.832;2023-07-02T00:19:46;99914.06;;;12.55;81.78
51849;BME280;38952;51.090;-1.832;2023-07-02T00:22:12;99912.44;;;12.54;82.25
51849;BME280;38952;51.090;-1.832;2023-07-02T00:24:37;99911.91;;;12.52;81.76
51849;BME280;38952;51.090;-1.832;2023-07-02T00:27:03;99919.09;;;12.48;81.94
51849;BME280;38952;51.090;-1.832;2023-07-02T00:29:29;99906.59;;;12.36;81.89
51849;BME280;38952;51.090;-1.832;2023-07-02T00:31:54;99905.59;;;12.27;81.82
51849;BME280;38952;51.090;-1.832;2023-07-02T00:34:20;99905.88;;;12.26;82.24
51849;BME280;38952;51.090;-1.832;2023-07-02T00:36:46;99910.50;;;12.30;81.87
51849;BME280;38952;51.090;-1.832;2023-07-02T00:39:11;99904.03;;;12.21;81.78
51849;BME280;38952;51.090;-1.832;2023-07-02T00:41:37;99915.00;;;12.21;82.20
51849;BME280;38952;51.090;-1.832;2023-07-02T00:44:03;99916.13;;;12.15;82.31
51849;BME280;38952;51.090;-1.832;2023-07-02T00:46:30;99919.13;;;12.18;82.42
51849;BME280;38952;51.090;-1.832;2023-07-02T00:48:56;99912.19;;;12.26;82.52
51849;BME280;38952;51.090;-1.832;2023-07-02T00:51:24;99922.47;;;12.39;82.23
51849;BME280;38952;51.090;-1.832;2023-07-02T00:53:51;99917.53;;;12.42;82.00
51849;BME280;38952;51.090;-1.832;2023-07-02T00:56:17;99910.69;;;12.39;81.82
51849;BME280;38952;51.090;-1.832;2023-07-02T00:58:45;99920.72;;;12.49;82.55
51849;BME280;38952;51.090;-1.832;2023-07-02T01:01:31;99922.13;;;12.46;82.13
51849;BME280;38952;51.090;-1.832;2023-07-02T01:04:04;99915.34;;;12.38;81.87
51849;BME280;38952;51.090;-1.832;2023-07-02T01:06:35;99932.94;;;12.32;82.07
51849;BME280;38952;51.090;-1.832;2023-07-02T01:09:03;99920.94;;;12.28;82.02
51849;BME280;38952;51.090;-1.832;2023-07-02T01:11:41;99934.69;;;12.23;81.92
51849;BME280;38952;51.090;-1.832;2023-07-02T01:14:31;99935.84;;;12.17;82.16
51849;BME280;38952;51.090;-1.832;2023-07-02T01:16:59;99939.22;;;12.09;82.85
51849;BME280;38952;51.090;-1.832;2023-07-02T01:19:47;99934.38;;;12.00;82.64
51849;BME280;38952;51.090;-1.832;2023-07-02T01:22:18;99939.88;;;11.95;82.58
51849;BME280;38952;51.090;-1.832;2023-07-02T01:24:44;99940.19;;;11.88;83.02
51849;BME280;38952;51.090;-1.832;2023-07-02T01:27:11;99946.00;;;11.82;83.25
51849;BME280;38952;51.090;-1.832;2023-07-02T01:29:37;99938.72;;;11.67;83.32
51849;BME280;38952;51.090;-1.832;2023-07-02T01:32:03;99938.44;;;11.63;83.79
51849;BME280;38952;51.090;-1.832;2023-07-02T01:34:28;99950.53;;;11.62;84.05
51849;BME280;38952;51.090;-1.832;2023-07-02T01:36:54;99950.03;;;11.55;84.18
51849;BME280;38952;51.090;-1.832;2023-07-02T01:39:19;99951.91;;;11.55;84.27
51849;BME280;38952;51.090;-1.832;2023-07-02T01:41:50;99953.84;;;11.54;84.04
51849;BME280;38952;51.090;-1.832;2023-07-02T01:44:16;99953.88;;;11.49;84.73
51849;BME280;38952;51.090;-1.832;2023-07-02T01:46:41;99950.84;;;11.50;85.00
51849;BME280;38952;51.090;-1.832;2023-07-02T01:49:07;99948.94;;;11.51;85.44
51849;BME280;38952;51.090;-1.832;2023-07-02T01:51:33;99954.44;;;11.51;85.46
51849;BME280;38952;51.090;-1.832;2023-07-02T01:53:59;99954.94;;;11.53;85.91
51849;BME280;38952;51.090;-1.832;2023-07-02T01:56:24;99949.25;;;11.49;85.88
51849;BME280;38952;51.090;-1.832;2023-07-02T01:58:50;99945.13;;;11.47;86.18
51849;BME280;38952;51.090;-1.832;2023-07-02T02:01:15;99944.63;;;11.45;86.30
51849;BME280;38952;51.090;-1.832;2023-07-02T02:03:40;99948.72;;;11.42;86.55
51849;BME280;38952;51.090;-1.832;2023-07-02T02:06:06;99948.16;;;11.45;86.91
51849;BME280;38952;51.090;-1.832;2023-07-02T02:08:31;99949.25;;;11.49;86.51
51849;BME280;38952;51.090;-1.832;2023-07-02T02:10:57;99950.31;;;11.53;86.78
51849;BME280;38952;51.090;-1.832;2023-07-02T02:13:22;99955.44;;;11.60;87.03
51849;BME280;38952;51.090;-1.832;2023-07-02T02:15:47;99955.72;;;11.64;87.44
51849;BME280;38952;51.090;-1.832;2023-07-02T02:18:13;99955.72;;;11.64;86.85
51849;BME280;38952;51.090;-1.832;2023-07-02T02:20:39;99950.53;;;11.62;87.28
51849;BME280;38952;51.090;-1.832;2023-07-02T02:23:04;99955.44;;;11.60;87.20
51849;BME280;38952;51.090;-1.832;2023-07-02T02:25:30;99952.22;;;11.53;87.10
51849;BME280;38952;51.090;-1.832;2023-07-02T02:27:55;99961.84;;;11.45;87.38
51849;BME280;38952;51.090;-1.832;2023-07-02T02:30:21;99956.69;;;11.39;87.34
51849;BME280;38952;51.090;-1.832;2023-07-02T02:32:46;99957.22;;;11.41;87.52
51849;BME280;38952;51.090;-1.832;2023-07-02T02:35:12;99953.94;;;11.39;87.99
51849;BME280;38952;51.090;-1.832;2023-07-02T02:37:38;99963.28;;;11.38;87.56
51849;BME280;38952;51.090;-1.832;2023-07-02T02:40:08;99957.81;;;11.32;87.82
51849;BME280;38952;51.090;-1.832;2023-07-02T02:42:36;99960.56;;;11.32;88.20
51849;BME280;38952;51.090;-1.832;2023-07-02T02:45:03;99958.94;;;11.26;87.71
51849;BME280;38952;51.090;-1.832;2023-07-02T02:47:28;99962.25;;;11.23;88.42
51849;BME280;38952;51.090;-1.832;2023-07-02T02:49:54;99962.53;;;11.22;88.42
51849;BME280;38952;51.090;-1.832;2023-07-02T02:52:19;99958.44;;;11.19;87.92
51849;BME280;38952;51.090;-1.832;2023-07-02T02:54:45;99960.59;;;11.22;88.15
51849;BME280;38952;51.090;-1.832;2023-07-02T02:57:11;99957.91;;;11.17;88.81
51849;BME280;38952;51.090;-1.832;2023-07-02T02:59:38;99958.97;;;11.21;88.82
51849;BME280;38952;51.090;-1.832;2023-07-02T03:02:04;99966.06;;;11.27;88.48
51849;BME280;38952;51.090;-1.832;2023-07-02T03:04:32;99954.56;;;11.25;88.68
51849;BME280;38952;51.090;-1.832;2023-07-02T03:06:57;99952.38;;;11.27;89.21
51849;BME280;38952;51.090;-1.832;2023-07-02T03:09:22;99963.34;;;11.27;89.72
51849;BME280;38952;51.090;-1.832;2023-07-02T03:11:48;99954.06;;;11.18;89.09
51849;BME280;38952;51.090;-1.832;2023-07-02T03:14:14;99958.72;;;11.17;89.61
51849;BME280;38952;51.090;-1.832;2023-07-02T03:16:43;99960.41;;;11.08;89.44
51849;BME280;38952;51.090;-1.832;2023-07-02T03:19:10;99970.78;;;11.11;89.94
51849;BME280;38952;51.090;-1.832;2023-07-02T03:21:35;99969.38;;;11.14;90.00
51849;BME280;38952;51.090;-1.832;2023-07-02T03:24:01;99976.50;;;11.15;89.49
51849;BME280;38952;51.090;-1.832;2023-07-02T03:26:27;99969.16;;;11.10;89.69
51849;BME280;38952;51.090;-1.832;2023-07-02T03:28:52;99970.53;;;11.08;89.77
51849;BME280;38952;51.090;-1.832;2023-07-02T03:31:18;99976.00;;;11.08;89.74
51849;BME280;38952;51.090;-1.832;2023-07-02T03:33:43;99966.69;;;11.04;90.35
51849;BME280;38952;51.090;-1.832;2023-07-02T03:36:08;99972.19;;;11.04;90.32
51849;BME280;38952;51.090;-1.832;2023-07-02T03:38:34;99968.38;;;10.99;90.32
51849;BME280;38952;51.090;-1.832;2023-07-02T03:40:59;99983.41;;;11.07;90.20
51849;BME280;38952;51.090;-1.832;2023-07-02T03:43:25;99981.19;;;11.14;90.54
51849;BME280;38952;51.090;-1.832;2023-07-02T03:45:54;99982.50;;;11.22;90.42
51849;BME280;38952;51.090;-1.832;2023-07-02T03:48:19;99986.31;;;11.26;89.54
51849;BME280;38952;51.090;-1.832;2023-07-02T03:50:44;99983.59;;;11.26;89.39
51849;BME280;38952;51.090;-1.832;2023-07-02T03:53:10;99994.22;;;11.33;89.85
51849;BME280;38952;51.090;-1.832;2023-07-02T03:55:36;99991.69;;;11.42;89.08
51849;BME280;38952;51.090;-1.832;2023-07-02T03:58:04;99985.69;;;11.45;88.93
51849;BME280;38952;51.090;-1.832;2023-07-02T04:00:29;99976.84;;;11.53;88.66
51849;BME280;38952;51.090;-1.832;2023-07-02T04:02:54;99984.16;;;11.68;88.18
51849;BME280;38952;51.090;-1.832;2023-07-02T04:05:20;99996.16;;;11.77;88.32
51849;BME280;38952;51.090;-1.832;2023-07-02T04:07:46;99980.53;;;11.78;87.76
51849;BME280;38952;51.090;-1.832;2023-07-02T04:10:11;99993.06;;;11.89;88.11
51849;BME280;38952;51.090;-1.832;2023-07-02T04:12:37;99989.75;;;11.97;87.36
51849;BME280;38952;51.090;-1.832;2023-07-02T04:15:03;99993.53;;;12.01;87.38
51849;BME280;38952;51.090;-1.832;2023-07-02T04:17:30;99988.25;;;12.10;87.41
51849;BME280;38952;51.090;-1.832;2023-07-02T04:20:00;99992.31;;;12.18;86.84
51849;BME280;38952;51.090;-1.832;2023-07-02T04:22:25;99991.44;;;12.22;86.72
51849;BME280;38952;51.090;-1.832;2023-07-02T04:24:51;100006.22;;;12.27;86.27
51849;BME280;38952;51.090;-1.832;2023-07-02T04:27:16;100000.44;;;12.28;86.43
51849;BME280;38952;51.090;-1.832;2023-07-02T04:29:47;100008.31;;;12.35;85.64
51849;BME280;38952;51.090;-1.832;2023-07-02T04:32:12;100011.84;;;12.40;85.86
51849;BME280;38952;51.090;-1.832;2023-07-02T04:34:38;100009.09;;;12.40;85.54
51849;BME280;38952;51.090;-1.832;2023-07-02T04:37:04;99986.19;;;12.26;85.73
51849;BME280;38952;51.090;-1.832;2023-07-02T04:39:30;100017.28;;;12.46;85.74
51849;BME280;38952;51.090;-1.832;2023-07-02T04:41:55;100008.81;;;12.42;85.25
51849;BME280;38952;51.090;-1.832;2023-07-02T04:44:21;100017.81;;;12.48;85.27
51849;BME280;38952;51.090;-1.832;2023-07-02T04:47:03;100017.81;;;12.48;84.91
51849;BME280;38952;51.090;-1.832;2023-07-02T04:49:28;100024.38;;;12.52;85.22
51849;BME280;38952;51.090;-1.832;2023-07-02T04:51:54;100024.06;;;12.53;84.97
51849;BME280;38952;51.090;-1.832;2023-07-02T04:54:20;100025.94;;;12.58;85.13
51849;BME280;38952;51.090;-1.832;2023-07-02T04:56:46;100020.75;;;12.56;84.66
51849;BME280;38952;51.090;-1.832;2023-07-02T04:59:12;100022.91;;;12.60;84.41
51849;BME280;38952;51.090;-1.832;2023-07-02T05:01:37;100017.13;;;12.61;84.43
51849;BME280;38952;51.090;-1.832;2023-07-02T05:04:03;100017.59;;;12.68;84.61
51849;BME280;38952;51.090;-1.832;2023-07-02T05:06:29;100031.28;;;12.73;83.83
51849;BME280;38952;51.090;-1.832;2023-07-02T05:08:54;100035.09;;;12.78;84.07
51849;BME280;38952;51.090;-1.832;2023-07-02T05:11:19;100030.06;;;12.85;83.83
51849;BME280;38952;51.090;-1.832;2023-07-02T05:13:45;100030.06;;;12.85;83.81
51849;BME280;38952;51.090;-1.832;2023-07-02T05:16:10;100043.66;;;12.95;83.50
51849;BME280;38952;51.090;-1.832;2023-07-02T05:18:36;100037.91;;;12.97;83.45
51849;BME280;38952;51.090;-1.832;2023-07-02T05:21:01;100029.91;;;13.00;82.96
51849;BME280;38952;51.090;-1.832;2023-07-02T05:23:26;100031.41;;;13.12;82.91
51849;BME280;38952;51.090;-1.832;2023-07-02T05:25:52;100040.63;;;13.21;82.57
51849;BME280;38952;51.090;-1.832;2023-07-02T05:28:17;100041.69;;;13.25;82.60
51849;BME280;38952;51.090;-1.832;2023-07-02T05:30:43;100048.72;;;13.36;82.14
51849;BME280;38952;51.090;-1.832;2023-07-02T05:33:08;100046.50;;;13.38;81.80
51849;BME280;38952;51.090;-1.832;2023-07-02T05:35:34;100045.78;;;13.52;81.73
51849;BME280;38952;51.090;-1.832;2023-07-02T05:38:00;100049.88;;;13.54;81.79
51849;BME280;38952;51.090;-1.832;2023-07-02T05:40:25;100041.78;;;13.63;81.40
51849;BME280;38952;51.090;-1.832;2023-07-02T05:42:50;100045.19;;;13.74;81.23
51849;BME280;38952;51.090;-1.832;2023-07-02T05:45:16;100042.09;;;13.81;80.51
51849;BME280;38952;51.090;-1.832;2023-07-02T05:47:41;100048.25;;;13.91;80.13
51849;BME280;38952;51.090;-1.832;2023-07-02T05:50:07;100055.53;;;14.01;80.24
51849;BME280;38952;51.090;-1.832;2023-07-02T05:52:33;100040.72;;;13.97;79.95
51849;BME280;38952;51.090;-1.832;2023-07-02T05:54:58;100065.69;;;14.20;79.53
51849;BME280;38952;51.090;-1.832;2023-07-02T05:57:24;100052.88;;;14.29;79.44
51849;BME280;38952;51.090;-1.832;2023-07-02T05:59:49;100056.81;;;14.42;79.26
51849;BME280;38952;51.090;-1.832;2023-07-02T06:02:14;100070.09;;;14.54;78.71
51849;BME280;38952;51.090;-1.832;2023-07-02T06:04:40;100071.59;;;14.65;78.37
51849;BME280;38952;51.090;-1.832;2023-07-02T06:07:05;100067.13;;;14.69;77.99
51849;BME280;38952;51.090;-1.832;2023-07-02T06:09:31;100070.59;;;14.75;77.47
51849;BME280;38952;51.090;-1.832;2023-07-02T06:11:57;100072.84;;;14.87;77.22
51849;BME280;38952;51.090;-1.832;2023-07-02T06:14:23;100077.88;;;14.98;77.02
51849;BME280;38952;51.090;-1.832;2023-07-02T06:16:51;100072.47;;;15.07;76.54
51849;BME280;38952;51.090;-1.832;2023-07-02T06:19:17;100063.47;;;15.15;76.78
51849;BME280;38952;51.090;-1.832;2023-07-02T06:21:46;100075.94;;;15.27;75.77
51849;BME280;38952;51.090;-1.832;2023-07-02T06:24:11;100068.00;;;15.39;75.24
51849;BME280;38952;51.090;-1.832;2023-07-02T06:26:37;100077.97;;;15.63;74.72
51849;BME280;38952;51.090;-1.832;2023-07-02T06:29:06;100082.44;;;15.86;74.12
51849;BME280;38952;51.090;-1.832;2023-07-02T06:31:31;100084.25;;;15.91;73.57
51849;BME280;38952;51.090;-1.832;2023-07-02T06:34:02;100086.22;;;15.91;73.01
51849;BME280;38952;51.090;-1.832;2023-07-02T06:36:28;100077.72;;;15.87;73.06
51849;BME280;38952;51.090;-1.832;2023-07-02T06:38:55;100068.34;;;15.88;72.87
51849;BME280;38952;51.090;-1.832;2023-07-02T06:41:24;100084.22;;;16.05;72.32
51849;BME280;38952;51.090;-1.832;2023-07-02T06:43:52;100090.84;;;16.40;71.31
51849;BME280;38952;51.090;-1.832;2023-07-02T06:46:20;100084.22;;;16.73;70.60
51849;BME280;38952;51.090;-1.832;2023-07-02T06:48:52;100092.44;;;16.87;69.14
51849;BME280;38952;51.090;-1.832;2023-07-02T06:51:22;100079.06;;;16.80;68.25
51849;BME280;38952;51.090;-1.832;2023-07-02T06:53:50;100084.91;;;16.79;67.37
51849;BME280;38952;51.090;-1.832;2023-07-02T06:56:15;100083.63;;;17.07;66.73
51849;BME280;38952;51.090;-1.832;2023-07-02T06:58:44;100091.22;;;17.42;66.60
51849;BME280;38952;51.090;-1.832;2023-07-02T07:01:09;100095.53;;;17.57;64.93
51849;BME280;38952;51.090;-1.832;2023-07-02T07:03:35;100095.97;;;17.50;64.97
51849;BME280;38952;51.090;-1.832;2023-07-02T07:06:01;100096.78;;;17.51;64.86
51849;BME280;38952;51.090;-1.832;2023-07-02T07:08:27;100098.97;;;17.22;64.48
51849;BME280;38952;51.090;-1.832;2023-07-02T07:10:52;100098.56;;;17.06;64.42
51849;BME280;38952;51.090;-1.832;2023-07-02T07:13:18;100098.41;;;17.03;64.21
51849;BME280;38952;51.090;-1.832;2023-07-02T07:15:46;100096.00;;;17.10;63.87
51849;BME280;38952;51.090;-1.832;2023-07-02T07:18:14;100092.53;;;17.44;62.97
51849;BME280;38952;51.090;-1.832;2023-07-02T07:20:49;100096.69;;;17.73;61.58
51849;BME280;38952;51.090;-1.832;2023-07-02T07:23:15;100102.09;;;17.87;60.39
51849;BME280;38952;51.090;-1.832;2023-07-02T07:25:49;100094.97;;;17.95;60.85
51849;BME280;38952;51.090;-1.832;2023-07-02T07:28:15;100088.94;;;18.02;60.02
51849;BME280;38952;51.090;-1.832;2023-07-02T07:30:50;100100.84;;;18.11;60.08
51849;BME280;38952;51.090;-1.832;2023-07-02T07:33:20;100110.28;;;18.10;58.95
51849;BME280;38952;51.090;-1.832;2023-07-02T07:36:08;100112.25;;;18.09;58.88
51849;BME280;38952;51.090;-1.832;2023-07-02T07:38:36;100101.31;;;17.95;58.02
51849;BME280;38952;51.090;-1.832;2023-07-02T07:41:04;100099.47;;;17.82;57.50
51849;BME280;38952;51.090;-1.832;2023-07-02T07:43:59;100112.00;;;17.79;58.23
51849;BME280;38952;51.090;-1.832;2023-07-02T07:49:57;100075.50;;;17.51;57.47
51849;BME280;38952;51.090;-1.832;2023-07-02T07:52:31;100098.31;;;17.66;57.51
51849;BME280;38952;51.090;-1.832;2023-07-02T07:55:09;100087.81;;;17.36;56.45
51849;BME280;38952;51.090;-1.832;2023-07-02T07:58:28;100091.69;;;17.26;57.10
51849;BME280;38952;51.090;-1.832;2023-07-02T08:01:21;100107.63;;;17.30;56.19
51849;BME280;38952;51.090;-1.832;2023-07-02T08:04:20;100111.72;;;17.41;56.23
51849;BME280;38952;51.090;-1.832;2023-07-02T08:06:50;100125.00;;;17.70;56.83
51849;BME280;38952;51.090;-1.832;2023-07-02T08:09:39;100097.84;;;17.81;56.30
51849;BME280;38952;51.090;-1.832;2023-07-02T08:12:30;100107.84;;;18.08;55.27
51849;BME280;38952;51.090;-1.832;2023-07-02T08:14:56;100092.69;;;18.06;54.34
51849;BME280;38952;51.090;-1.832;2023-07-02T08:17:24;100109.47;;;18.09;54.27
51849;BME280;38952;51.090;-1.832;2023-07-02T08:20:09;100090.75;;;18.15;54.86
51849;BME280;38952;51.090;-1.832;2023-07-02T08:22:48;100099.19;;;18.45;54.20
51849;BME280;38952;51.090;-1.832;2023-07-02T08:25:14;100110.13;;;18.50;53.95
51849;BME280;38952;51.090;-1.832;2023-07-02T08:27:51;100121.66;;;18.61;54.04
51849;BME280;38952;51.090;-1.832;2023-07-02T08:30:35;100115.00;;;18.62;52.97
51849;BME280;38952;51.090;-1.832;2023-07-02T08:33:01;100125.75;;;18.46;53.26
51849;BME280;38952;51.090;-1.832;2023-07-02T08:35:29;100099.53;;;18.35;53.68
51849;BME280;38952;51.090;-1.832;2023-07-02T08:37:57;100099.22;;;18.27;52.75
51849;BME280;38952;51.090;-1.832;2023-07-02T08:40:42;100106.38;;;18.46;53.08
51849;BME280;38952;51.090;-1.832;2023-07-02T08:53:39;100110.53;;;20.03;49.97
51849;BME280;38952;51.090;-1.832;2023-07-02T09:02:45;100090.06;;;20.08;48.41
51849;BME280;38952;51.090;-1.832;2023-07-02T09:05:27;100103.09;;;20.16;48.83
51849;BME280;38952;51.090;-1.832;2023-07-02T09:08:24;100123.66;;;20.15;48.24
51849;BME280;38952;51.090;-1.832;2023-07-02T09:11:15;100082.94;;;19.47;49.53
51849;BME280;38952;51.090;-1.832;2023-07-02T09:13:52;100104.31;;;19.46;50.10
51849;BME280;38952;51.090;-1.832;2023-07-02T09:16:33;100100.13;;;19.31;50.39
51849;BME280;38952;51.090;-1.832;2023-07-02T09:19:08;100134.81;;;19.46;50.19
51849;BME280;38952;51.090;-1.832;2023-07-02T09:21:53;100123.19;;;19.23;50.62
51849;BME280;38952;51.090;-1.832;2023-07-02T09:24:54;100114.97;;;18.97;50.69
51849;BME280;38952;51.090;-1.832;2023-07-02T09:27:39;100127.00;;;18.83;50.81
51849;BME280;38952;51.090;-1.832;2023-07-02T09:30:15;100110.22;;;18.80;51.58
51849;BME280;38952;51.090;-1.832;2023-07-02T09:39:47;100098.16;;;18.93;50.72
51849;BME280;38952;51.090;-1.832;2023-07-02T09:42:40;100094.91;;;18.91;51.23
51849;BME280;38952;51.090;-1.832;2023-07-02T09:45:35;100089.03;;;18.84;51.18
51849;BME280;38952;51.090;-1.832;2023-07-02T09:48:02;100084.50;;;18.88;51.45
51849;BME280;38952;51.090;-1.832;2023-07-02T09:50:28;100107.56;;;19.10;50.98
51849;BME280;38952;51.090;-1.832;2023-07-02T09:52:57;100089.03;;;19.01;50.74
51849;BME280;38952;51.090;-1.832;2023-07-02T09:55:27;100118.50;;;19.06;50.38
51849;BME280;38952;51.090;-1.832;2023-07-02T09:57:53;100126.34;;;19.04;51.18
51849;BME280;38952;51.090;-1.832;2023-07-02T10:00:19;100118.56;;;18.89;50.76
51849;BME280;38952;51.090;-1.832;2023-07-02T10:02:51;100123.44;;;18.74;51.78
51849;BME280;38952;51.090;-1.832;2023-07-02T10:05:29;100122.63;;;18.74;51.88
51849;BME280;38952;51.090;-1.832;2023-07-02T10:07:56;100116.25;;;18.73;51.98
51849;BME280;38952;51.090;-1.832;2023-07-02T10:10:31;100126.03;;;18.79;51.59
51849;BME280;38952;51.090;-1.832;2023-07-02T10:12:59;100126.06;;;18.88;52.00
51849;BME280;38952;51.090;-1.832;2023-07-02T10:15:26;100132.78;;;19.26;51.80
51849;BME280;38952;51.090;-1.832;2023-07-02T10:17:59;100125.19;;;19.52;50.79
51849;BME280;38952;51.090;-1.832;2023-07-02T10:20:36;100129.97;;;19.34;50.79
51849;BME280;38952;51.090;-1.832;2023-07-02T10:23:04;100131.88;;;19.13;51.56
51849;BME280;38952;51.090;-1.832;2023-07-02T10:25:34;100130.75;;;18.96;51.67
51849;BME280;38952;51.090;-1.832;2023-07-02T10:28:19;100130.44;;;18.89;51.98
51849;BME280;38952;51.090;-1.832;2023-07-02T10:30:47;100132.72;;;18.87;52.38
51849;BME280;38952;51.090;-1.832;2023-07-02T10:33:17;100123.41;;;19.48;51.37
51849;BME280;38952;51.090;-1.832;2023-07-02T10:35:44;100129.19;;;20.57;49.44
51849;BME280;38952;51.090;-1.832;2023-07-02T10:38:23;100130.56;;;21.30;47.94
51849;BME280;38952;51.090;-1.832;2023-07-02T10:40:59;100126.91;;;21.75;45.25
51849;BME280;38952;51.090;-1.832;2023-07-02T10:43:29;100120.94;;;22.14;44.41
51849;BME280;38952;51.090;-1.832;2023-07-02T10:45:55;100124.38;;;22.23;43.58
51849;BME280;38952;51.090;-1.832;2023-07-02T10:48:25;100124.81;;;21.85;43.42
51849;BME280;38952;51.090;-1.832;2023-07-02T10:50:50;100119.91;;;21.20;43.96
51849;BME280;38952;51.090;-1.832;2023-07-02T10:53:18;100109.75;;;20.78;45.70
51849;BME280;38952;51.090;-1.832;2023-07-02T10:55:44;100114.28;;;20.83;44.61
51849;BME280;38952;51.090;-1.832;2023-07-02T10:58:11;100120.28;;;20.85;43.62
51849;BME280;38952;51.090;-1.832;2023-07-02T11:00:51;100117.41;;;21.52;39.91
51849;BME280;38952;51.090;-1.832;2023-07-02T11:03:25;100118.81;;;21.70;39.74
51849;BME280;38952;51.090;-1.832;2023-07-02T11:06:02;100112.44;;;21.57;37.72
51849;BME280;38952;51.090;-1.832;2023-07-02T11:08:39;100129.81;;;20.96;37.77
51849;BME280;38952;51.090;-1.832;2023-07-02T11:11:07;100114.44;;;20.99;38.86
51849;BME280;38952;51.090;-1.832;2023-07-02T11:13:46;100120.72;;;23.36;34.96
51849;BME280;38952;51.090;-1.832;2023-07-02T11:16:24;100140.31;;;27.78;28.32
51849;BME280;38952;51.090;-1.832;2023-07-02T11:19:06;100124.97;;;27.68;27.02
51849;BME280;38952;51.090;-1.832;2023-07-02T11:21:35;100113.19;;;25.75;28.26
51849;BME280;38952;51.090;-1.832;2023-07-02T11:24:02;100135.38;;;26.14;27.94
51849;BME280;38952;51.090;-1.832;2023-07-02T11:26:43;100119.41;;;25.65;28.96
51849;BME280;38952;51.090;-1.832;2023-07-02T11:29:19;100117.91;;;25.71;29.17
51849;BME280;38952;51.090;-1.832;2023-07-02T11:31:50;100119.31;;;25.84;28.51
51849;BME280;38952;51.090;-1.832;2023-07-02T11:34:17;100130.44;;;26.04;27.65
51849;BME280;38952;51.090;-1.832;2023-07-02T11:36:45;100102.97;;;25.13;28.97
51849;BME280;38952;51.090;-1.832;2023-07-02T11:39:11;100109.50;;;24.19;30.71
51849;BME280;38952;51.090;-1.832;2023-07-02T11:41:42;100105.84;;;24.35;31.11
51849;BME280;38952;51.090;-1.832;2023-07-02T11:44:09;100100.91;;;24.28;31.29
51849;BME280;38952;51.090;-1.832;2023-07-02T11:46:35;100110.25;;;24.55;31.23
51849;BME280;38952;51.090;-1.832;2023-07-02T11:49:02;100128.19;;;24.54;31.32
51849;BME280;38952;51.090;-1.832;2023-07-02T11:51:28;100101.34;;;24.11;32.35
51849;BME280;38952;51.090;-1.832;2023-07-02T11:53:53;100102.84;;;23.73;32.29
51849;BME280;38952;51.090;-1.832;2023-07-02T11:56:19;100099.31;;;25.32;30.62
51849;BME280;38952;51.090;-1.832;2023-07-02T11:58:44;100106.59;;;27.75;27.62
51849;BME280;38952;51.090;-1.832;2023-07-02T12:01:10;100101.34;;;26.46;28.21
51849;BME280;38952;51.090;-1.832;2023-07-02T12:03:35;100113.91;;;25.22;30.25
51849;BME280;38952;51.090;-1.832;2023-07-02T12:06:00;100107.16;;;24.80;30.73
51849;BME280;38952;51.090;-1.832;2023-07-02T12:08:27;100118.50;;;26.41;29.12
51849;BME280;38952;51.090;-1.832;2023-07-02T12:10:53;100099.91;;;25.99;29.37
51849;BME280;38952;51.090;-1.832;2023-07-02T12:13:18;100082.56;;;25.36;30.29
51849;BME280;38952;51.090;-1.832;2023-07-02T12:15:46;100092.81;;;25.51;30.39
51849;BME280;38952;51.090;-1.832;2023-07-02T12:18:12;100105.19;;;25.04;31.18
51849;BME280;38952;51.090;-1.832;2023-07-02T12:20:39;100092.22;;;26.90;30.99
51849;BME280;38952;51.090;-1.832;2023-07-02T12:23:05;100102.09;;;32.41;23.51
51849;BME280;38952;51.090;-1.832;2023-07-02T12:25:31;100098.19;;;32.89;20.98
51849;BME280;38952;51.090;-1.832;2023-07-02T12:27:56;100094.28;;;30.78;22.82
51849;BME280;38952;51.090;-1.832;2023-07-02T12:30:22;100091.84;;;31.40;23.03
51849;BME280;38952;51.090;-1.832;2023-07-02T12:32:47;100095.06;;;34.22;20.17
51849;BME280;38952;51.090;-1.832;2023-07-02T12:35:13;100102.88;;;35.90;18.67
51849;BME280;38952;51.090;-1.832;2023-07-02T12:37:46;100092.47;;;37.80;16.73
51849;BME280;38952;51.090;-1.832;2023-07-02T12:40:13;100087.53;;;36.30;17.63
51849;BME280;38952;51.090;-1.832;2023-07-02T12:42:40;100080.88;;;33.11;20.24
51849;BME280;38952;51.090;-1.832;2023-07-02T12:45:06;100069.69;;;29.83;23.13
51849;BME280;38952;51.090;-1.832;2023-07-02T12:47:32;100070.78;;;27.12;26.94
51849;BME280;38952;51.090;-1.832;2023-07-02T12:49:57;100069.72;;;26.15;29.50
51849;BME280;38952;51.090;-1.832;2023-07-02T12:52:23;100068.78;;;25.77;29.86
51849;BME280;38952;51.090;-1.832;2023-07-02T12:54:48;100067.31;;;24.44;31.93
51849;BME280;38952;51.090;-1.832;2023-07-02T12:57:13;100065.16;;;23.63;33.06
51849;BME280;38952;51.090;-1.832;2023-07-02T12:59:39;100074.78;;;25.25;32.58
51849;BME280;38952;51.090;-1.832;2023-07-02T13:02:05;100068.38;;;28.33;27.88
51849;BME280;38952;51.090;-1.832;2023-07-02T13:04:30;100066.63;;;32.64;23.44
51849;BME280;38952;51.090;-1.832;2023-07-02T13:06:56;100078.19;;;34.55;19.71
51849;BME280;38952;51.090;-1.832;2023-07-02T13:09:21;100062.97;;;35.48;19.26
51849;BME280;38952;51.090;-1.832;2023-07-02T13:11:47;100059.47;;;35.57;18.58
51849;BME280;38952;51.090;-1.832;2023-07-02T13:14:12;100072.16;;;32.98;21.06
51849;BME280;38952;51.090;-1.832;2023-07-02T13:16:37;100067.28;;;30.77;23.22
51849;BME280;38952;51.090;-1.832;2023-07-02T13:19:03;100076.47;;;28.52;25.96